createdAt,value
2017-06-17T17:52:09.855Z,21.45
2017-06-17T17:53:10.588Z,21.46
2017-06-17T17:54:11.321Z,21.48
2017-06-17T17:55:12.053Z,21.46
2017-06-17T17:56:12.785Z,21.43
2017-06-17T17:57:13.519Z,21.46
2017-06-17T17:58:14.251Z,21.46
2017-06-17T17:59:14.985Z,21.46
2017-06-17T18:00:15.714Z,21.45
2017-06-17T18:01:16.449Z,21.42
2017-06-17T18:02:17.183Z,21.40
2017-06-17T18:03:17.916Z,21.32
2017-06-17T18:04:18.648Z,21.32
2017-06-17T18:05:19.383Z,21.33
2017-06-17T18:06:20.114Z,21.29
2017-06-17T18:07:20.843Z,21.32
2017-06-17T18:08:21.576Z,21.30
2017-06-17T18:09:22.307Z,21.21
2017-06-17T18:10:23.039Z,21.18
2017-06-17T18:11:23.769Z,21.18
2017-06-17T18:12:24.503Z,21.07
2017-06-17T18:13:25.231Z,21.15
2017-06-17T18:14:25.965Z,21.15
2017-06-17T18:15:26.693Z,21.21
2017-06-17T18:16:27.425Z,21.11
2017-06-17T18:17:28.158Z,21.20
2017-06-17T18:18:28.887Z,21.20
2017-06-17T18:19:29.618Z,21.20
2017-06-17T18:20:30.352Z,21.22
2017-06-17T18:21:31.081Z,21.15
2017-06-17T18:22:31.811Z,21.21
2017-06-17T18:23:32.542Z,21.18
2017-06-17T18:24:33.274Z,21.14
2017-06-17T18:25:34.009Z,21.18
2017-06-17T18:26:34.742Z,21.24
2017-06-17T18:27:35.475Z,21.18
2017-06-17T18:28:36.234Z,21.22
2017-06-17T18:29:36.967Z,21.18
2017-06-17T18:30:37.696Z,21.18
2017-06-17T18:31:38.430Z,21.18
2017-06-17T18:32:39.161Z,21.15
2017-06-17T18:33:39.895Z,21.17
2017-06-17T18:34:40.623Z,21.15
2017-06-17T18:35:41.357Z,21.18
2017-06-17T18:36:42.089Z,21.25
2017-06-17T18:37:42.847Z,21.33
2017-06-17T18:38:43.579Z,21.29
2017-06-17T18:39:44.313Z,21.30
2017-06-17T18:40:45.047Z,21.32
2017-06-17T18:41:45.777Z,21.30
2017-06-17T18:42:46.512Z,21.32
2017-06-17T18:43:47.248Z,21.33
2017-06-17T18:44:47.979Z,21.29
2017-06-17T18:45:48.713Z,21.24
2017-06-17T18:46:49.442Z,21.18
2017-06-17T18:47:50.180Z,21.21
2017-06-17T18:48:50.908Z,21.21
2017-06-17T18:49:51.641Z,21.12
2017-06-17T18:50:52.371Z,21.11
2017-06-17T18:51:53.133Z,21.11
2017-06-17T18:52:53.861Z,21.17
2017-06-17T18:53:54.618Z,21.11
2017-06-17T18:54:55.350Z,21.12
2017-06-17T18:55:56.079Z,21.07
2017-06-17T18:56:56.809Z,21.06
2017-06-17T18:57:57.541Z,21.14
2017-06-17T18:58:58.275Z,21.09
2017-06-17T18:59:59.031Z,21.09
2017-06-17T19:00:59.760Z,21.03
2017-06-17T19:02:00.517Z,21.03
2017-06-17T19:03:01.249Z,21.03
2017-06-17T19:04:01.980Z,21.02
2017-06-17T19:05:02.708Z,21.02
2017-06-17T19:06:03.440Z,20.99
2017-06-17T19:07:04.172Z,21.00
2017-06-17T19:08:04.929Z,20.96
2017-06-17T19:09:05.659Z,20.93
2017-06-17T19:10:06.391Z,21.00
2017-06-17T19:11:07.119Z,20.96
2017-06-17T19:12:07.847Z,20.96
2017-06-17T19:13:08.577Z,20.93
2017-06-17T19:14:09.309Z,20.93
2017-06-17T19:15:10.044Z,20.92
2017-06-17T19:16:10.771Z,20.87
2017-06-17T19:17:11.503Z,20.92
2017-06-17T19:18:12.234Z,20.84
2017-06-17T19:19:12.964Z,20.82
2017-06-17T19:20:13.692Z,20.84
2017-06-17T19:21:14.426Z,20.80
2017-06-17T19:22:15.153Z,20.84
2017-06-17T19:23:15.883Z,20.82
2017-06-17T19:24:16.612Z,20.77
2017-06-17T19:25:17.341Z,20.78
2017-06-17T19:26:18.070Z,20.82
2017-06-17T19:27:18.800Z,20.77
2017-06-17T19:28:19.530Z,20.84
2017-06-17T19:29:20.261Z,20.69
2017-06-17T19:30:20.989Z,20.74
2017-06-17T19:31:21.720Z,20.66
2017-06-17T19:32:22.449Z,20.72
2017-06-17T19:33:23.179Z,20.72
2017-06-17T19:34:23.910Z,20.66
2017-06-17T19:35:24.641Z,20.72
2017-06-17T19:36:25.369Z,20.66
2017-06-17T19:37:26.096Z,20.75
2017-06-17T19:38:26.825Z,20.72
2017-06-17T19:39:27.558Z,20.72
2017-06-17T19:40:28.285Z,20.72
2017-06-17T19:41:29.016Z,20.69
2017-06-17T19:42:29.745Z,20.77
2017-06-17T19:43:30.476Z,20.66
2017-06-17T19:44:31.207Z,20.67
2017-06-17T19:45:31.935Z,20.77
2017-06-17T19:46:32.662Z,20.67
2017-06-17T19:47:33.391Z,20.60
2017-06-17T19:48:34.120Z,20.62
2017-06-17T19:49:34.847Z,20.59
2017-06-17T19:50:35.576Z,20.72
2017-06-17T19:51:36.303Z,20.74
2017-06-17T19:52:37.038Z,20.60
2017-06-17T19:53:37.762Z,20.63
2017-06-17T19:54:38.490Z,20.75
2017-06-17T19:55:39.221Z,20.67
2017-06-17T19:56:39.946Z,20.72
2017-06-17T19:57:40.675Z,20.67
2017-06-17T19:58:41.405Z,20.67
2017-06-17T19:59:42.135Z,20.67
2017-06-17T20:00:42.862Z,20.67
2017-06-17T20:01:43.592Z,20.69
2017-06-17T20:02:44.322Z,20.62
2017-06-17T20:03:45.051Z,20.59
2017-06-17T20:04:45.780Z,20.65
2017-06-17T20:05:46.508Z,20.66
2017-06-17T20:06:47.238Z,20.65
2017-06-17T20:07:47.964Z,20.60
2017-06-17T20:08:48.693Z,20.63
2017-06-17T20:09:49.421Z,20.63
2017-06-17T20:10:50.150Z,20.56
2017-06-17T20:11:50.879Z,20.62
2017-06-17T20:12:51.606Z,20.59
2017-06-17T20:13:52.337Z,20.60
2017-06-17T20:14:53.064Z,20.52
2017-06-17T20:15:53.791Z,20.50
2017-06-17T20:16:54.518Z,20.62
2017-06-17T20:17:55.244Z,20.48
2017-06-17T20:18:55.971Z,20.56
2017-06-17T20:19:56.698Z,20.48
2017-06-17T20:20:57.425Z,20.37
2017-06-17T20:21:58.152Z,20.47
2017-06-17T20:22:58.880Z,20.47
2017-06-17T20:23:59.604Z,20.36
2017-06-17T20:25:00.332Z,20.40
2017-06-17T20:26:01.063Z,20.44
2017-06-17T20:27:01.790Z,20.47
2017-06-17T20:28:02.517Z,20.43
2017-06-17T20:29:03.245Z,20.43
2017-06-17T20:30:03.972Z,20.37
2017-06-17T20:31:04.699Z,20.37
2017-06-17T20:32:05.426Z,20.41
2017-06-17T20:33:06.158Z,20.41
2017-06-17T20:34:06.885Z,20.32
2017-06-17T20:35:07.616Z,20.32
2017-06-17T20:36:08.370Z,20.26
2017-06-17T20:37:09.097Z,20.28
2017-06-17T20:38:09.851Z,20.29
2017-06-17T20:39:10.581Z,20.26
2017-06-17T20:40:11.306Z,20.24
2017-06-17T20:41:12.034Z,20.32
2017-06-17T20:42:12.762Z,20.34
2017-06-17T20:43:13.491Z,20.18
2017-06-17T20:44:14.217Z,20.24
2017-06-17T20:45:14.945Z,20.19
2017-06-17T20:46:15.673Z,20.09
2017-06-17T20:47:16.405Z,20.14
2017-06-17T20:48:17.129Z,20.06
2017-06-17T20:49:17.859Z,20.07
2017-06-17T20:50:18.586Z,19.92
2017-06-17T20:51:19.312Z,19.95
2017-06-17T20:52:20.040Z,20.00
2017-06-17T20:53:20.766Z,20.03
2017-06-17T20:54:21.494Z,19.95
2017-06-17T20:55:22.221Z,19.92
2017-06-17T20:56:22.977Z,19.91
2017-06-17T20:57:23.703Z,20.00
2017-06-17T20:58:24.453Z,19.95
2017-06-17T20:59:25.180Z,19.94
2017-06-17T21:00:25.909Z,19.88
2017-06-17T21:01:26.662Z,19.94
2017-06-17T21:02:27.388Z,19.85
2017-06-17T21:03:28.121Z,19.88
2017-06-17T21:04:28.848Z,19.84
2017-06-17T21:05:29.577Z,19.89
2017-06-17T21:06:30.303Z,19.85
2017-06-17T21:07:31.031Z,19.79
2017-06-17T21:08:31.758Z,19.76
2017-06-17T21:09:32.484Z,19.85
2017-06-17T21:10:33.212Z,19.76
2017-06-17T21:11:33.943Z,19.76
2017-06-17T21:12:34.665Z,19.76
2017-06-17T21:13:35.393Z,19.77
2017-06-17T21:14:36.120Z,19.70
2017-06-17T21:15:36.848Z,19.69
2017-06-17T21:16:37.573Z,19.67
2017-06-17T21:17:38.299Z,19.71
2017-06-17T21:18:39.026Z,19.66
2017-06-17T21:19:39.756Z,19.69
2017-06-17T21:20:40.485Z,19.70
2017-06-17T21:21:41.210Z,19.62
2017-06-17T21:22:41.939Z,19.67
2017-06-17T21:23:42.668Z,19.58
2017-06-17T21:24:43.393Z,19.64
2017-06-17T21:25:44.122Z,19.67
2017-06-17T21:26:44.851Z,19.64
2017-06-17T21:27:45.577Z,19.69
2017-06-17T21:28:46.305Z,19.62
2017-06-17T21:29:47.036Z,19.52
2017-06-17T21:30:47.764Z,19.55
2017-06-17T21:31:48.493Z,19.48
2017-06-17T21:32:49.222Z,19.48
2017-06-17T21:33:49.951Z,19.45
2017-06-17T21:34:50.679Z,19.39
2017-06-17T21:35:51.406Z,19.37
2017-06-17T21:36:52.135Z,19.39
2017-06-17T21:37:52.863Z,19.31
2017-06-17T21:38:53.593Z,19.31
2017-06-17T21:39:54.321Z,19.29
2017-06-17T21:40:55.048Z,19.22
2017-06-17T21:41:55.777Z,19.24
2017-06-17T21:42:56.504Z,19.22
2017-06-17T21:43:57.232Z,19.14
2017-06-17T21:44:57.959Z,19.15
2017-06-17T21:45:58.686Z,19.12
2017-06-17T21:46:59.413Z,19.12
2017-06-17T21:48:00.141Z,18.99
2017-06-17T21:49:00.896Z,19.07
2017-06-17T21:50:01.648Z,19.07
2017-06-17T21:51:02.375Z,18.92
2017-06-17T21:52:03.101Z,18.93
2017-06-17T21:53:03.828Z,18.92
2017-06-17T21:54:04.584Z,18.95
2017-06-17T21:55:05.339Z,18.90
2017-06-17T21:56:06.064Z,18.90
2017-06-17T21:57:06.793Z,18.80
2017-06-17T21:58:07.543Z,18.86
2017-06-17T21:59:08.270Z,18.83
2017-06-17T22:00:09.000Z,18.73
2017-06-17T22:01:09.727Z,18.77
2017-06-17T22:02:10.457Z,18.75
2017-06-17T22:03:11.182Z,18.71
2017-06-17T22:04:11.907Z,18.71
2017-06-17T22:05:12.637Z,18.70
2017-06-17T22:06:13.366Z,18.71
2017-06-17T22:07:14.092Z,18.56
2017-06-17T22:08:14.820Z,18.49
2017-06-17T22:09:15.549Z,18.56
2017-06-17T22:10:16.283Z,18.60
2017-06-17T22:11:17.007Z,18.56
2017-06-17T22:12:17.763Z,18.47
2017-06-17T22:13:18.487Z,18.45
2017-06-17T22:14:19.219Z,18.53
2017-06-17T22:15:19.945Z,18.53
2017-06-17T22:16:20.673Z,18.45
2017-06-17T22:17:21.401Z,18.47
2017-06-17T22:18:22.128Z,18.45
2017-06-17T22:19:22.854Z,18.43
2017-06-17T22:20:23.582Z,18.41
2017-06-17T22:21:24.309Z,18.43
2017-06-17T22:22:25.060Z,18.38
2017-06-17T22:23:25.790Z,18.44
2017-06-17T22:24:26.517Z,18.38
2017-06-17T22:25:27.244Z,18.35
2017-06-17T22:26:27.971Z,18.34
2017-06-17T22:27:28.698Z,18.34
2017-06-17T22:28:29.426Z,18.28
2017-06-17T22:29:30.154Z,18.28
2017-06-17T22:30:30.884Z,18.25
2017-06-17T22:31:31.613Z,18.26
2017-06-17T22:32:32.366Z,18.26
2017-06-17T22:33:33.093Z,18.31
2017-06-17T22:34:33.823Z,18.19
2017-06-17T22:35:34.578Z,18.23
2017-06-17T22:36:35.304Z,18.18
2017-06-17T22:37:36.034Z,18.13
2017-06-17T22:38:36.760Z,18.13
2017-06-17T22:39:37.513Z,18.15
2017-06-17T22:40:38.267Z,18.13
2017-06-17T22:41:38.994Z,18.08
2017-06-17T22:42:39.725Z,18.10
2017-06-17T22:43:40.453Z,18.04
2017-06-17T22:44:41.180Z,17.97
2017-06-17T22:45:41.905Z,18.04
2017-06-17T22:46:42.635Z,17.92
2017-06-17T22:47:43.362Z,17.90
2017-06-17T22:48:44.091Z,17.89
2017-06-17T22:49:44.844Z,17.87
2017-06-17T22:50:45.573Z,17.85
2017-06-17T22:51:46.301Z,17.89
2017-06-17T22:52:47.028Z,17.90
2017-06-17T22:53:47.753Z,17.87
2017-06-17T22:54:48.483Z,17.87
2017-06-17T22:55:49.210Z,17.80
2017-06-17T22:56:49.936Z,17.87
2017-06-17T22:57:50.689Z,17.79
2017-06-17T22:58:51.419Z,17.82
2017-06-17T22:59:52.148Z,17.80
2017-06-17T23:00:52.875Z,17.67
2017-06-17T23:01:53.599Z,17.76
2017-06-17T23:02:54.325Z,17.82
2017-06-17T23:03:55.055Z,17.72
2017-06-17T23:04:55.782Z,17.67
2017-06-17T23:05:56.507Z,17.72
2017-06-17T23:06:57.238Z,17.80
2017-06-17T23:07:57.962Z,17.68
2017-06-17T23:08:58.690Z,17.76
2017-06-17T23:09:59.416Z,17.76
2017-06-17T23:11:00.170Z,17.72
2017-06-17T23:12:00.896Z,17.72
2017-06-17T23:13:01.625Z,17.78
2017-06-17T23:14:02.353Z,17.78
2017-06-17T23:15:03.078Z,17.86
2017-06-17T23:16:03.805Z,17.87
2017-06-17T23:17:04.532Z,17.80
2017-06-17T23:18:05.261Z,17.74
2017-06-17T23:19:05.988Z,17.72
2017-06-17T23:20:06.717Z,17.78
2017-06-17T23:21:07.445Z,17.76
2017-06-17T23:22:08.197Z,17.80
2017-06-17T23:23:08.923Z,17.78
2017-06-17T23:24:09.680Z,17.78
2017-06-17T23:25:10.406Z,17.68
2017-06-17T23:26:11.155Z,17.79
2017-06-17T23:27:11.884Z,17.79
2017-06-17T23:28:12.613Z,17.72
2017-06-17T23:29:13.365Z,17.76
2017-06-17T23:30:14.092Z,17.67
2017-06-17T23:31:14.819Z,17.65
2017-06-17T23:32:15.548Z,17.65
2017-06-17T23:33:16.275Z,17.67
2017-06-17T23:34:17.001Z,17.64
2017-06-17T23:35:17.756Z,17.57
2017-06-17T23:36:18.484Z,17.57
2017-06-17T23:37:19.212Z,17.52
2017-06-17T23:38:19.939Z,17.49
2017-06-17T23:39:20.695Z,17.46
2017-06-17T23:40:21.422Z,17.42
2017-06-17T23:41:22.151Z,17.48
2017-06-17T23:42:22.877Z,17.48
2017-06-17T23:43:23.631Z,17.34
2017-06-17T23:44:24.360Z,17.34
2017-06-17T23:45:25.087Z,17.33
2017-06-17T23:46:25.818Z,17.38
2017-06-17T23:47:26.545Z,17.33
2017-06-17T23:48:27.298Z,17.26
2017-06-17T23:49:28.027Z,17.23
2017-06-17T23:50:28.752Z,17.24
2017-06-17T23:51:29.482Z,17.20
2017-06-17T23:52:30.238Z,17.16
2017-06-17T23:53:30.965Z,17.12
2017-06-17T23:54:31.689Z,17.06
2017-06-17T23:55:32.418Z,17.06
2017-06-17T23:56:33.145Z,17.04
2017-06-17T23:57:33.872Z,16.97
2017-06-17T23:58:34.600Z,16.97
2017-06-17T23:59:35.328Z,16.97
